KN60

Garrison Airport

Garrison, North Dakota, USA
METAR KN60 181352Z AUTO 16007KT 20/14 A2995 RMK AO1 SLP132 T02000144
Observed Flight Rules
Aug-18 @ 13:52 UTC (an hour ago)
Wind
160° at 7 knots
Temperatures Readings
Current 20°C / 68°F
Dewpoint 14°C / 57°F
Humidity 69%
Altimeter 29.95" Hg
Pressure 1013.2 hPa
Elevation 582
METAR KN60 181352Z AUTO 16007KT 20/14 A2995 RMK AO1 SLP132 T02000144
Observed Flight Rules
Aug-18 @ 13:52 UTC
(an hour ago)
Wind
160° at 7 knots
Temperature Dewpoint
20°C / 68°F 14°C / 57°F
Humidity Altimeter Pressure
69% 29.95" Hg 1013.2 hPa